Kake, AK (99830)

12:01 AM AKDT on September 17, 2014 (GMT -0800)
Kake | Change Station
CLOSE
Current Station
Airport
Location: Kake,
Elevation: 171 ft
Nearby Weather Stations

Elev 171 ft 56.96 °N, 133.91 °W | Updated 5 minutes ago

Overcast
Overcast
52 °F
Feels Like 52 °F
N
0
Wind Variable Wind from North

Today
High -- | Low -- °F
--% Chance of Precip.
Yesterday
High -- | Low -- °F
Precip. -- in
6:31 AM 7:08 PM
Last Quarter, 38% visible
Pressure 29.84 in
Visibility 1.2 miles
Clouds Overcast 500 ft
Dew Point 48 °F
Humidity 88%
Rainfall 0.10 in
Snow Depth Not available.
UV 0 out of 12
Pollen Not available.
Air Quality Not available.
Flu Activity Not available.
METAR PAFE 170756Z AUTO 00000KT 1 1/4SM OVC005 11/09 A2984 RMK AO1 P0001

More Conditions Fewer Conditions

Pressure 29.84 in
Visibility 1.2 miles
Clouds Overcast 500 ft
Dew Point 48 °F
Humidity 88%
Rainfall 0.10 in
Snow Depth Not available.
UV 0 out of 12
Pollen Not available.
Air Quality Not available.
Flu Activity Not available.
METAR PAFE 170756Z AUTO 00000KT 1 1/4SM OVC005 11/09 A2984 RMK AO1 P0001

More Conditions Fewer Conditions

10-Day Weather Forecast

Almanac

Astronomy

Sep. 17, 2014 Rise Set
Actual Time 6:31 AM AKDT 7:08 PM AKDT
Civil Twilight 5:52 AM AKDT 7:46 PM AKDT
Nautical Twilight 5:05 AM AKDT 8:32 PM AKDT
Astronomical Twilight 4:15 AM AKDT 9:22 PM AKDT
Moon No Moon Rise 4:10 PM AKDT
Length of Visible Light 13h 53m
Length of Day
12h 37m
Tomorrow will be 4m 47s shorter.
Last Quarter, 38% of the Moon is Illuminated
Today
Last Quarter
Sep 24
New
Oct 1
First Quarter
Oct 8
Full
Oct 15
Last Quarter

Community

WunderPhotos

Upload Photos

1,753,976 photos uploaded!

Nearby

Snow Depth

Station Depth Elevation
Rocky Point 5 in 500 ft
Mcneil Canyon 1 in 1320 ft
Munson Ridge 1 in 3100 ft
Fort Yukon 0 in 430 ft
Port Graham 0 in 300 ft

Earthquake Activity

City Distance Mag. Time & Date
No recent earthquake activity has been reported nearby.
Minimum magnitude displayed is 2.5.

Coastal Water Temperatures

Place Temperature
No Stations Reporting

Nearby Weather Stations